Southport Airport
CYPG : now visible

Airfield :











YOU CAN JOIN US ON...

 
LOGIN :

Register | Disclaimer

   EN    FR    IT 

 









Legend :    VFR   Marginal VFR   IFR   Intensive IFR   Very Intensive IFR
Visi :
Ceiling :
>= 8 km
>= 3000ft
5 to 8 km
1000 to 3000 ft
1500m to 5 km
500 to 1000 ft
800 to 1500m
200 to 500 ft
< 800m
< 200 ft
Symbols :   Thunderstorms  Fog  Heavy snow  Heavy precipitations  Wind > 20 kt






- Airport Elevation : 885 ft
- IATA code : YPG


CYPG - Southport

CURRENT METAR :
  • 191600Z 26009KT 15SM SKC M22/M28 A3069 RMK SLP428

EXPIRED METARs :
  • 191500Z 24008KT 15SM SKC M25/M29 A3068 RMK SLP425
  • 191400Z 24009KT 15SM FEW240 M26/M30 A3065 RMK CI1 SLP414

TAF TAF CYPG
Valid from the 19 at 13:00 until the 20 at 01:00 UTC


191315Z 1913/2001 25010KT P6SM SKC RMK NXT FCST BY 191800Z



MET'MAP, your aeronautical weather chart ! - Copyright ORBIFLY December 2007 - Disclaimer

ORBIFLY MET'MAP TEAM :

Programming & Development : Alexandra Zaïnal
Concept & original design : Baudouin d'Aumeries
Assistance for programming : Marc-Olivier Méhu
Technical & hardware support : Manuel Goepfert

Contact : metmap@orbifly.com




SOURCES & CREDITS :

   NOAA       Earth
Advisory